createdAt,value
2022-12-04T00:00:36.356Z,0.76
2022-12-04T00:03:04.128Z,0.77
2022-12-04T00:05:31.800Z,0.79
2022-12-04T00:08:00.897Z,0.77
2022-12-04T00:10:28.664Z,0.77
2022-12-04T00:12:56.333Z,0.76
2022-12-04T00:15:25.988Z,0.76
2022-12-04T00:17:54.624Z,0.75
2022-12-04T00:20:23.018Z,0.75
2022-12-04T00:22:50.663Z,0.75
2022-12-04T00:25:19.919Z,0.74
2022-12-04T00:27:47.557Z,0.75
2022-12-04T00:30:15.574Z,0.74
2022-12-04T00:32:43.248Z,0.74
2022-12-04T00:35:11.007Z,0.73
2022-12-04T00:37:38.757Z,0.75
2022-12-04T00:40:08.027Z,0.75
2022-12-04T00:42:37.027Z,0.75
2022-12-04T00:45:05.325Z,0.77
2022-12-04T00:47:33.014Z,0.77
2022-12-04T00:50:00.621Z,0.77
2022-12-04T00:52:28.626Z,0.76
2022-12-04T00:54:56.275Z,0.75
2022-12-04T00:57:23.932Z,0.75
2022-12-04T00:59:53.159Z,0.74
2022-12-04T01:02:21.149Z,0.77
2022-12-04T01:04:48.780Z,0.77
2022-12-04T01:07:16.577Z,0.79
2022-12-04T01:09:44.203Z,0.78
2022-12-04T01:12:16.170Z,0.77
2022-12-04T01:14:46.762Z,0.78
2022-12-04T01:17:15.797Z,0.77
2022-12-04T01:19:43.468Z,0.78
2022-12-04T01:22:11.283Z,0.80
2022-12-04T01:24:38.940Z,0.80
2022-12-04T01:27:06.611Z,0.79
2022-12-04T01:29:34.708Z,0.80
2022-12-04T01:32:02.447Z,0.81
2022-12-04T01:34:31.531Z,0.84
2022-12-04T01:36:59.187Z,0.83
2022-12-04T01:39:26.819Z,0.83
2022-12-04T01:41:54.494Z,0.84
2022-12-04T01:44:23.933Z,0.83
2022-12-04T01:46:52.685Z,0.84
2022-12-04T01:49:24.860Z,0.85
2022-12-04T01:51:57.596Z,0.83
2022-12-04T01:54:31.027Z,0.81
2022-12-04T01:57:02.443Z,0.83
2022-12-04T01:59:34.299Z,0.82
2022-12-04T02:02:05.759Z,0.80
2022-12-04T02:04:35.386Z,0.81
2022-12-04T02:07:05.091Z,0.80
2022-12-04T02:09:34.368Z,0.80
2022-12-04T02:12:09.267Z,0.82
2022-12-04T02:14:46.096Z,0.83
2022-12-04T02:17:23.395Z,0.84
2022-12-04T02:20:06.708Z,0.85
2022-12-04T02:22:54.856Z,0.83
2022-12-04T02:25:30.415Z,0.84
2022-12-04T02:28:06.078Z,0.86
2022-12-04T02:30:37.970Z,0.86
2022-12-04T02:33:12.997Z,0.87
2022-12-04T02:35:43.926Z,0.86
2022-12-04T02:38:17.391Z,0.88
2022-12-04T02:40:52.599Z,0.86
2022-12-04T02:43:25.636Z,0.86
2022-12-04T02:46:00.075Z,0.84
2022-12-04T02:48:32.200Z,0.85
2022-12-04T02:51:02.980Z,0.84
2022-12-04T02:53:33.460Z,0.83
2022-12-04T02:56:04.469Z,0.82
2022-12-04T02:58:38.308Z,0.83
2022-12-04T03:01:19.458Z,0.83
2022-12-04T03:03:53.489Z,0.84
2022-12-04T03:06:23.021Z,0.82
2022-12-04T03:08:54.531Z,0.82
2022-12-04T03:11:22.569Z,0.82
2022-12-04T03:13:56.238Z,0.84
2022-12-04T03:16:27.209Z,0.81
2022-12-04T03:18:59.096Z,0.81
2022-12-04T03:21:32.493Z,0.81
2022-12-04T03:24:06.176Z,0.79
2022-12-04T03:26:38.384Z,0.79
2022-12-04T03:29:13.105Z,0.82
2022-12-04T03:31:45.194Z,0.82
2022-12-04T03:34:16.028Z,0.82
2022-12-04T03:36:50.132Z,0.83
2022-12-04T03:39:22.236Z,0.82
2022-12-04T03:41:58.199Z,0.82
2022-12-04T03:44:33.752Z,0.82
2022-12-04T03:47:05.774Z,0.80
2022-12-04T03:49:43.318Z,0.81
2022-12-04T03:52:18.061Z,0.80
2022-12-04T03:54:50.840Z,0.82
2022-12-04T03:57:23.860Z,0.82
2022-12-04T03:59:59.984Z,0.82
2022-12-04T04:02:34.059Z,0.83
2022-12-04T04:05:03.729Z,0.82
2022-12-04T04:07:36.058Z,0.81
2022-12-04T04:10:08.333Z,0.82
2022-12-04T04:12:40.938Z,0.82
2022-12-04T04:15:32.239Z,0.82
2022-12-04T04:18:19.758Z,0.84
2022-12-04T04:21:08.547Z,0.82
2022-12-04T04:23:58.439Z,0.81
2022-12-04T04:26:30.130Z,0.79
2022-12-04T04:28:57.777Z,0.78
2022-12-04T04:31:34.945Z,0.76
2022-12-04T04:34:12.325Z,0.75
2022-12-04T04:36:48.676Z,0.74
2022-12-04T04:39:25.498Z,0.74
2022-12-04T04:41:58.859Z,0.75
2022-12-04T04:44:32.191Z,0.73
2022-12-04T04:47:04.739Z,0.72
2022-12-04T04:49:35.431Z,0.71
2022-12-04T04:52:03.861Z,0.73
2022-12-04T04:54:32.643Z,0.72
2022-12-04T04:57:00.304Z,0.70
2022-12-04T04:59:27.929Z,0.70
2022-12-04T05:01:55.754Z,0.70
2022-12-04T05:04:24.765Z,0.73
2022-12-04T05:06:52.413Z,0.74
2022-12-04T05:09:20.033Z,0.72
2022-12-04T05:11:47.729Z,0.70
2022-12-04T05:14:15.343Z,0.72
2022-12-04T05:16:42.958Z,0.70
2022-12-04T05:19:27.716Z,0.69
2022-12-04T05:21:57.501Z,0.68
2022-12-04T05:24:25.144Z,0.67
2022-12-04T05:26:52.816Z,0.67
2022-12-04T05:29:20.604Z,0.70
2022-12-04T05:31:48.301Z,0.73
2022-12-04T05:34:15.968Z,0.72
2022-12-04T05:36:43.652Z,0.72
2022-12-04T05:39:12.631Z,0.72
2022-12-04T05:41:40.308Z,0.70
2022-12-04T05:44:07.963Z,0.72
2022-12-04T05:46:35.642Z,0.73
2022-12-04T05:49:03.309Z,0.73
2022-12-04T05:51:30.946Z,0.70
2022-12-04T05:53:58.616Z,0.73
2022-12-04T05:56:27.628Z,0.75
2022-12-04T05:58:55.270Z,0.74
2022-12-04T06:01:25.053Z,0.74
2022-12-04T06:03:53.155Z,0.76
2022-12-04T06:06:22.957Z,0.76
2022-12-04T06:08:51.696Z,0.75
2022-12-04T06:11:22.181Z,0.74
2022-12-04T06:13:51.557Z,0.74
2022-12-04T06:16:21.071Z,0.73
2022-12-04T06:18:51.596Z,0.74
2022-12-04T06:21:19.716Z,0.74
2022-12-04T06:23:47.811Z,0.75
2022-12-04T06:26:16.094Z,0.77
2022-12-04T06:28:43.939Z,0.76
2022-12-04T06:31:15.399Z,0.77
2022-12-04T06:33:43.819Z,0.78
2022-12-04T06:36:14.543Z,0.77
2022-12-04T06:38:42.778Z,0.79
2022-12-04T06:41:12.821Z,0.78
2022-12-04T06:43:41.467Z,0.77
2022-12-04T06:46:11.345Z,0.79
2022-12-04T06:48:41.094Z,0.80
2022-12-04T06:51:10.449Z,0.80
2022-12-04T06:53:38.208Z,0.79
2022-12-04T06:56:08.095Z,0.79
2022-12-04T06:58:36.095Z,0.79
2022-12-04T07:01:08.226Z,0.80
2022-12-04T07:03:36.431Z,0.80
2022-12-04T07:06:14.302Z,0.80
2022-12-04T07:08:42.384Z,0.81
2022-12-04T07:11:10.439Z,0.80
2022-12-04T07:13:38.131Z,0.81
2022-12-04T07:16:08.491Z,0.82
2022-12-04T07:18:36.925Z,0.80
2022-12-04T07:21:07.584Z,0.79
2022-12-04T07:23:37.170Z,0.79
2022-12-04T07:26:06.513Z,0.80
2022-12-04T07:28:34.447Z,0.82
2022-12-04T07:31:05.002Z,0.80
2022-12-04T07:33:32.808Z,0.81
2022-12-04T07:36:01.807Z,0.81
2022-12-04T07:38:30.754Z,0.81
2022-12-04T07:41:00.804Z,0.82
2022-12-04T07:43:29.959Z,0.82
2022-12-04T07:45:58.153Z,0.81
2022-12-04T07:48:31.745Z,0.82
2022-12-04T07:51:05.445Z,0.82
2022-12-04T07:53:34.241Z,0.83
2022-12-04T07:56:03.437Z,0.80
2022-12-04T07:58:31.085Z,0.79
2022-12-04T08:01:07.016Z,0.81
2022-12-04T08:03:34.754Z,0.84
2022-12-04T08:06:02.644Z,0.84
2022-12-04T08:08:30.592Z,0.85
2022-12-04T08:10:58.317Z,0.84
2022-12-04T08:13:27.365Z,0.86
2022-12-04T08:15:54.959Z,0.88
2022-12-04T08:18:22.621Z,0.88
2022-12-04T08:20:50.261Z,0.88
2022-12-04T08:23:17.934Z,0.90
2022-12-04T08:25:45.599Z,0.93
2022-12-04T08:28:13.242Z,0.92
2022-12-04T08:30:42.261Z,0.93
2022-12-04T08:33:09.926Z,0.94
2022-12-04T08:35:37.546Z,0.95
2022-12-04T08:38:05.177Z,0.97
2022-12-04T08:40:33.246Z,0.99
2022-12-04T08:43:01.042Z,0.99
2022-12-04T08:45:28.683Z,1.00
2022-12-04T08:47:57.724Z,1.02
2022-12-04T08:50:25.337Z,1.02
2022-12-04T08:52:52.962Z,1.02
2022-12-04T08:55:20.601Z,1.01
2022-12-04T08:57:48.276Z,1.01
2022-12-04T09:00:16.959Z,1.00
2022-12-04T09:02:44.695Z,1.03
2022-12-04T09:05:13.671Z,1.02
2022-12-04T09:07:41.341Z,1.02
2022-12-04T09:10:10.334Z,1.02
2022-12-04T09:12:38.018Z,1.03
2022-12-04T09:15:06.632Z,1.03
2022-12-04T09:17:35.134Z,1.00
2022-12-04T09:20:03.419Z,1.01
2022-12-04T09:22:57.820Z,1.01
2022-12-04T09:25:22.019Z,1.02
2022-12-04T09:27:49.669Z,1.02
2022-12-04T09:30:17.332Z,1.04
2022-12-04T09:32:45.004Z,1.05
2022-12-04T09:35:12.629Z,1.06
2022-12-04T09:37:41.606Z,1.07
2022-12-04T09:40:21.898Z,1.09
2022-12-04T09:42:57.806Z,1.09
2022-12-04T09:45:27.284Z,1.12
2022-12-04T09:47:59.253Z,1.13
2022-12-04T09:50:32.816Z,1.14
2022-12-04T09:53:04.617Z,1.16
2022-12-04T09:55:37.316Z,1.18
2022-12-04T09:58:08.153Z,1.21
2022-12-04T10:00:39.910Z,1.24
2022-12-04T10:03:13.359Z,1.24
2022-12-04T10:05:49.569Z,1.22
2022-12-04T10:08:22.546Z,1.25
2022-12-04T10:11:01.324Z,1.24
2022-12-04T10:13:46.047Z,1.25
2022-12-04T10:16:20.709Z,1.28
2022-12-04T10:18:55.526Z,1.30
2022-12-04T10:21:35.192Z,1.30
2022-12-04T10:24:23.747Z,1.28
2022-12-04T10:26:52.543Z,1.30
2022-12-04T10:29:25.344Z,1.30
2022-12-04T10:31:57.207Z,1.30
2022-12-04T10:34:27.137Z,1.30
2022-12-04T10:36:56.737Z,1.28
2022-12-04T10:39:30.893Z,1.29
2022-12-04T10:42:02.870Z,1.28
2022-12-04T10:44:30.839Z,1.26
2022-12-04T10:47:06.090Z,1.26
2022-12-04T10:49:35.020Z,1.25
2022-12-04T10:52:02.997Z,1.27
2022-12-04T10:54:35.188Z,1.27
2022-12-04T10:57:05.037Z,1.27
2022-12-04T10:59:33.119Z,1.30
2022-12-04T11:02:07.011Z,1.31
2022-12-04T11:04:36.647Z,1.32
2022-12-04T11:07:06.770Z,1.33
2022-12-04T11:09:36.735Z,1.36
2022-12-04T11:12:10.467Z,1.37
2022-12-04T11:14:40.731Z,1.37
2022-12-04T11:17:18.411Z,1.35
2022-12-04T11:19:46.561Z,1.37
2022-12-04T11:22:17.319Z,1.39
2022-12-04T11:24:52.119Z,1.39
2022-12-04T11:27:24.651Z,1.42
2022-12-04T11:29:53.187Z,1.45
2022-12-04T11:32:24.166Z,1.47
2022-12-04T11:34:55.102Z,1.48
2022-12-04T11:37:26.980Z,1.47
2022-12-04T11:39:56.910Z,1.48
2022-12-04T11:42:26.335Z,1.49
2022-12-04T11:44:57.346Z,1.50
2022-12-04T11:47:27.046Z,1.53
2022-12-04T11:50:03.307Z,1.55
2022-12-04T11:52:43.072Z,1.57
2022-12-04T11:55:17.324Z,1.54
2022-12-04T11:57:50.893Z,1.55
2022-12-04T12:00:20.237Z,1.57
2022-12-04T12:03:05.939Z,1.57
2022-12-04T12:05:50.586Z,1.57
2022-12-04T12:08:30.155Z,1.60
2022-12-04T12:11:06.933Z,1.62
2022-12-04T12:13:46.332Z,1.62
2022-12-04T12:16:25.682Z,1.62
2022-12-04T12:19:08.465Z,1.63
2022-12-04T12:21:44.389Z,1.65
2022-12-04T12:24:25.817Z,1.66
2022-12-04T12:27:07.744Z,1.68
2022-12-04T12:29:47.991Z,1.69
2022-12-04T12:32:32.422Z,1.71
2022-12-04T12:35:01.440Z,1.70
2022-12-04T12:37:38.971Z,1.73
2022-12-04T12:40:15.734Z,1.74
2022-12-04T12:42:58.007Z,1.75
2022-12-04T12:45:33.328Z,1.76
2022-12-04T12:48:09.576Z,1.77
2022-12-04T12:50:44.584Z,1.77
2022-12-04T12:53:18.884Z,1.77
2022-12-04T12:55:51.424Z,1.78
2022-12-04T12:58:29.135Z,1.78
2022-12-04T13:01:01.177Z,1.79
2022-12-04T13:03:38.443Z,1.80
2022-12-04T13:06:13.493Z,1.83
2022-12-04T13:08:49.470Z,1.84
2022-12-04T13:11:21.072Z,1.84
2022-12-04T13:13:53.470Z,1.84
2022-12-04T13:16:25.442Z,1.83
2022-12-04T13:19:12.984Z,1.82
2022-12-04T13:21:45.160Z,1.84
2022-12-04T13:24:46.958Z,1.85
2022-12-04T13:27:23.828Z,1.84
2022-12-04T13:30:04.852Z,1.84
2022-12-04T13:33:05.540Z,1.83
2022-12-04T13:35:53.071Z,1.82
2022-12-04T13:38:29.451Z,1.84
2022-12-04T13:40:58.928Z,1.85
2022-12-04T13:43:33.187Z,1.83
2022-12-04T13:46:05.951Z,1.84
2022-12-04T13:48:40.592Z,1.84
2022-12-04T13:51:24.052Z,1.84
2022-12-04T13:54:02.335Z,1.86
2022-12-04T13:56:31.858Z,1.85
2022-12-04T13:59:02.391Z,1.86
2022-12-04T14:01:38.763Z,1.87
2022-12-04T14:04:07.372Z,1.86
2022-12-04T14:06:38.547Z,1.87
2022-12-04T14:09:09.724Z,1.87
2022-12-04T14:11:46.640Z,1.86
2022-12-04T14:14:26.712Z,1.84
2022-12-04T14:16:57.207Z,1.86
2022-12-04T14:19:32.395Z,1.86
2022-12-04T14:21:59.935Z,1.86
2022-12-04T14:24:35.033Z,1.88
2022-12-04T14:27:11.709Z,1.87
2022-12-04T14:29:48.564Z,1.84
2022-12-04T14:32:22.821Z,1.83
2022-12-04T14:34:51.175Z,1.82
2022-12-04T14:37:25.495Z,1.78
2022-12-04T14:39:54.454Z,1.78
2022-12-04T14:42:25.392Z,1.79
2022-12-04T14:44:56.758Z,1.79
2022-12-04T14:47:40.153Z,1.79
2022-12-04T14:50:31.799Z,1.79
2022-12-04T14:53:07.303Z,1.81
2022-12-04T14:55:42.672Z,1.80
2022-12-04T14:58:32.462Z,1.79
2022-12-04T15:01:02.226Z,1.78
2022-12-04T15:03:36.296Z,1.81
2022-12-04T15:06:06.496Z,1.79
2022-12-04T15:08:34.511Z,1.77
2022-12-04T15:11:16.129Z,1.78
2022-12-04T15:13:43.779Z,1.77
2022-12-04T15:16:16.630Z,1.78
2022-12-04T15:18:55.969Z,1.77
2022-12-04T15:21:25.666Z,1.76
2022-12-04T15:23:53.364Z,1.76
2022-12-04T15:26:25.178Z,1.75
2022-12-04T15:28:57.304Z,1.78
2022-12-04T15:31:28.307Z,1.78
2022-12-04T15:34:01.835Z,1.79
2022-12-04T15:36:44.645Z,1.76
2022-12-04T15:39:16.769Z,1.77
2022-12-04T15:41:44.492Z,1.77
2022-12-04T15:44:29.076Z,1.72
2022-12-04T15:46:59.201Z,1.71
2022-12-04T15:49:29.880Z,1.73
2022-12-04T15:52:06.696Z,1.71
2022-12-04T15:54:36.172Z,1.73
2022-12-04T15:57:06.670Z,1.73
2022-12-04T15:59:36.419Z,1.77
2022-12-04T16:02:08.958Z,1.74
2022-12-04T16:04:43.988Z,1.77
2022-12-04T16:07:21.632Z,1.80
2022-12-04T16:10:01.091Z,1.81
2022-12-04T16:12:32.859Z,1.81
2022-12-04T16:15:00.502Z,1.82
2022-12-04T16:17:31.576Z,1.84
2022-12-04T16:20:01.788Z,1.84
2022-12-04T16:22:31.368Z,1.85
2022-12-04T16:24:59.313Z,1.88
2022-12-04T16:27:27.189Z,1.89
2022-12-04T16:29:54.993Z,1.90
2022-12-04T16:32:27.186Z,1.90
2022-12-04T16:34:55.162Z,1.92
2022-12-04T16:37:24.455Z,1.93
2022-12-04T16:39:52.112Z,1.94
2022-12-04T16:42:24.217Z,1.94
2022-12-04T16:44:52.497Z,1.95
2022-12-04T16:47:20.263Z,1.96
2022-12-04T16:49:50.721Z,1.99
2022-12-04T16:52:19.122Z,2.00
2022-12-04T16:54:48.646Z,2.01
2022-12-04T16:57:16.327Z,2.02
2022-12-04T16:59:43.976Z,2.01
2022-12-04T17:02:17.062Z,2.04
2022-12-04T17:04:44.761Z,2.06
2022-12-04T17:07:12.461Z,2.06
2022-12-04T17:09:40.152Z,2.07
2022-12-04T17:12:09.370Z,2.09
2022-12-04T17:14:37.006Z,2.10
2022-12-04T17:17:04.690Z,2.13
2022-12-04T17:19:32.422Z,2.15
2022-12-04T17:22:01.238Z,2.14
2022-12-04T17:24:28.957Z,2.16
2022-12-04T17:26:58.095Z,2.16
2022-12-04T17:29:27.168Z,2.20
2022-12-04T17:31:54.912Z,2.21
2022-12-04T17:34:22.567Z,2.21
2022-12-04T17:36:50.233Z,2.22
2022-12-04T17:39:17.871Z,2.23
2022-12-04T17:41:45.507Z,2.24
2022-12-04T17:44:13.200Z,2.24
2022-12-04T17:46:42.514Z,2.24
2022-12-04T17:49:10.261Z,2.25
2022-12-04T17:51:38.184Z,2.26
2022-12-04T17:54:06.611Z,2.25
2022-12-04T17:56:34.799Z,2.28
2022-12-04T17:59:02.426Z,2.31
2022-12-04T18:01:30.868Z,2.31
2022-12-04T18:04:01.814Z,2.33
2022-12-04T18:06:31.749Z,2.34
2022-12-04T18:09:00.236Z,2.35
2022-12-04T18:11:31.104Z,2.36
2022-12-04T18:14:00.936Z,2.38
2022-12-04T18:16:30.733Z,2.39
2022-12-04T18:19:01.505Z,2.40
2022-12-04T18:21:30.245Z,2.40
2022-12-04T18:23:59.091Z,2.43
2022-12-04T18:26:28.560Z,2.43
2022-12-04T18:28:56.714Z,2.43
2022-12-04T18:31:24.848Z,2.45
2022-12-04T18:33:52.552Z,2.45
2022-12-04T18:36:23.658Z,2.45
2022-12-04T18:38:55.481Z,2.44
2022-12-04T18:41:23.370Z,2.43
2022-12-04T18:43:51.913Z,2.42
2022-12-04T18:46:19.947Z,2.41
2022-12-04T18:48:48.890Z,2.42
2022-12-04T18:51:18.974Z,2.42
2022-12-04T18:53:48.337Z,2.43
2022-12-04T18:56:16.694Z,2.44
2022-12-04T18:58:46.382Z,2.45
2022-12-04T19:01:18.318Z,2.44
2022-12-04T19:03:46.991Z,2.46
2022-12-04T19:06:14.935Z,2.45
2022-12-04T19:08:43.631Z,2.44
2022-12-04T19:11:15.208Z,2.46
2022-12-04T19:13:43.748Z,2.45
2022-12-04T19:16:12.372Z,2.44
2022-12-04T19:18:40.195Z,2.46
2022-12-04T19:21:08.783Z,2.46
2022-12-04T19:23:36.299Z,2.45
2022-12-04T19:26:04.566Z,2.45
2022-12-04T19:28:33.704Z,2.45
2022-12-04T19:31:01.427Z,2.44
2022-12-04T19:33:29.367Z,2.45
2022-12-04T19:35:58.646Z,2.45
2022-12-04T19:38:26.936Z,2.45
2022-12-04T19:41:04.631Z,2.47
2022-12-04T19:43:33.627Z,2.48
2022-12-04T19:46:01.382Z,2.49
2022-12-04T19:48:29.312Z,2.51
2022-12-04T19:50:57.148Z,2.52
2022-12-04T19:53:24.803Z,2.52
2022-12-04T19:55:52.542Z,2.54
2022-12-04T19:58:20.275Z,2.56
2022-12-04T20:00:49.681Z,2.57
2022-12-04T20:03:17.396Z,2.60
2022-12-04T20:05:45.071Z,2.58
2022-12-04T20:10:39.393Z,2.56
2022-12-04T20:13:07.037Z,2.57
2022-12-04T20:15:36.384Z,2.57
2022-12-04T20:18:06.023Z,2.57
2022-12-04T20:20:33.826Z,2.57
2022-12-04T20:23:01.532Z,2.57
2022-12-04T20:25:29.267Z,2.55
2022-12-04T20:27:56.923Z,2.56
2022-12-04T20:30:24.667Z,2.57
2022-12-04T20:32:52.351Z,2.56
2022-12-04T20:35:21.424Z,2.56
2022-12-04T20:37:49.163Z,2.57
2022-12-04T20:40:18.308Z,2.58
2022-12-04T20:42:46.025Z,2.59
2022-12-04T20:45:13.709Z,2.60
2022-12-04T20:47:41.548Z,2.61
2022-12-04T20:50:10.377Z,2.63
2022-12-04T20:52:39.627Z,2.63
2022-12-04T20:55:08.895Z,2.65
2022-12-04T20:57:37.393Z,2.65
2022-12-04T21:02:47.318Z,2.68
2022-12-04T21:05:15.006Z,2.69
2022-12-04T21:07:44.076Z,2.70
2022-12-04T21:10:12.232Z,2.71
2022-12-04T21:12:57.492Z,2.72
2022-12-04T21:15:42.807Z,2.74
2022-12-04T21:18:10.479Z,2.76
2022-12-04T21:20:38.107Z,2.78
2022-12-04T21:23:07.123Z,2.78
2022-12-04T21:25:34.812Z,2.79
2022-12-04T21:28:02.486Z,2.80
2022-12-04T21:30:30.184Z,2.81
2022-12-04T21:32:57.872Z,2.82
2022-12-04T21:35:25.536Z,2.81
2022-12-04T21:37:53.192Z,2.81
2022-12-04T21:40:22.176Z,2.84
2022-12-04T21:42:49.852Z,2.84
2022-12-04T21:45:17.676Z,2.86
2022-12-04T21:47:45.312Z,2.88
2022-12-04T21:50:12.947Z,2.88
2022-12-04T21:52:40.681Z,2.89
2022-12-04T21:55:08.796Z,2.90
2022-12-04T21:57:37.854Z,2.93
2022-12-04T22:00:06.699Z,2.95
2022-12-04T22:02:36.282Z,2.96
2022-12-04T22:05:04.285Z,2.98
2022-12-04T22:07:31.987Z,2.99
2022-12-04T22:10:00.626Z,2.99
2022-12-04T22:12:48.919Z,3.00
2022-12-04T22:15:19.859Z,3.01
2022-12-04T22:17:47.536Z,3.02
2022-12-04T22:20:16.174Z,3.02
2022-12-04T22:22:43.880Z,3.04
2022-12-04T22:25:11.686Z,3.03
2022-12-04T22:27:39.359Z,3.03
2022-12-04T22:30:08.582Z,3.05
2022-12-04T22:32:37.672Z,3.07
2022-12-04T22:35:05.824Z,3.08
2022-12-04T22:37:33.642Z,3.09
2022-12-04T22:40:01.357Z,3.10
2022-12-04T22:42:29.376Z,3.10
2022-12-04T22:44:57.031Z,3.11
2022-12-04T22:47:24.791Z,3.11
2022-12-04T22:49:53.872Z,3.12
2022-12-04T22:52:21.545Z,3.13
2022-12-04T22:54:51.068Z,3.14
2022-12-04T22:57:19.137Z,3.14
2022-12-04T22:59:47.064Z,3.16
2022-12-04T23:02:14.721Z,3.18
2022-12-04T23:04:43.661Z,3.19
2022-12-04T23:07:12.965Z,3.20
2022-12-04T23:09:40.706Z,3.21
2022-12-04T23:12:08.452Z,3.22
2022-12-04T23:14:36.876Z,3.24
2022-12-04T23:17:04.474Z,3.23
2022-12-04T23:19:32.523Z,3.25
2022-12-04T23:22:00.165Z,3.27
2022-12-04T23:24:29.158Z,3.27
2022-12-04T23:26:56.825Z,3.28
2022-12-04T23:32:12.177Z,3.32
2022-12-04T23:34:39.874Z,3.32
2022-12-04T23:37:07.513Z,3.34
2022-12-04T23:39:36.557Z,3.36
2022-12-04T23:42:04.473Z,3.37
2022-12-04T23:44:32.202Z,3.39
2022-12-04T23:46:59.928Z,3.38
2022-12-04T23:49:27.708Z,3.40
2022-12-04T23:51:55.341Z,3.40
2022-12-04T23:54:22.994Z,3.42
2022-12-04T23:56:51.999Z,3.42
2022-12-04T23:59:21.263Z,3.44
